Time;durP1;ratioP1;P1;durP2;ratioP2;P2;SDS_P1;SDS_P2;PMS_P1;PMS_P2;Temp;Humidity;BMP_temperature;BMP_pressure;BME280_temperature;BME280_humidity;BME280_pressure;Samples;Min_cycle;Max_cycle;Signal;HPM_P1;HPM_P2
2021/09/07 00:00:17;;;;;;;9.17;8.33;;;22.50;91.20;;;;;;4998007;28;20213;-62
2021/09/07 00:02:43;;;;;;;8.80;7.90;;;22.50;91.40;;;;;;4999326;28;20204;-62
2021/09/07 00:05:10;;;;;;;9.80;8.37;;;22.30;91.50;;;;;;5002257;28;20223;-62
2021/09/07 00:07:36;;;;;;;8.73;7.73;;;22.20;91.70;;;;;;4984207;28;20227;-62
2021/09/07 00:10:04;;;;;;;9.43;8.10;;;22.10;91.80;;;;;;4997457;28;20491;-62
2021/09/07 00:12:29;;;;;;;9.47;8.50;;;22.10;91.80;;;;;;4999538;28;20191;-62
2021/09/07 00:14:55;;;;;;;10.27;9.27;;;22.20;91.60;;;;;;5002593;28;20440;-62
2021/09/07 00:17:21;;;;;;;9.43;8.50;;;22.20;91.60;;;;;;4999459;28;20211;-62
2021/09/07 00:19:46;;;;;;;9.47;8.50;;;22.00;91.80;;;;;;5003504;28;20200;-62
2021/09/07 00:22:12;;;;;;;11.40;8.80;;;22.00;92.00;;;;;;5000352;28;20206;-62
2021/09/07 00:24:38;;;;;;;10.27;8.10;;;22.00;91.80;;;;;;4997473;28;20721;-62
2021/09/07 00:27:04;;;;;;;9.83;8.87;;;22.00;91.80;;;;;;4999835;28;20692;-62
2021/09/07 00:29:29;;;;;;;8.90;8.00;;;22.00;92.00;;;;;;5000446;28;20197;-62
2021/09/07 00:31:56;;;;;;;9.60;8.70;;;22.10;92.00;;;;;;5002872;28;20182;-62
2021/09/07 00:34:21;;;;;;;8.57;7.67;;;21.90;92.30;;;;;;4999322;28;20197;-62
2021/09/07 00:36:47;;;;;;;11.17;8.77;;;21.80;92.20;;;;;;4997821;28;20473;-62
2021/09/07 00:39:13;;;;;;;11.20;7.93;;;21.90;92.30;;;;;;5000983;28;20615;-62
2021/09/07 00:41:40;;;;;;;11.73;9.23;;;21.80;92.90;;;;;;4996366;28;20280;-62
2021/09/07 00:44:17;;;;;;;9.93;8.30;;;21.80;92.50;;;;;;4999222;28;20473;-62
2021/09/07 00:47:04;;;;;;;11.10;8.63;;;21.70;92.90;;;;;;5000277;28;20471;-62
2021/09/07 00:49:32;;;;;;;10.30;9.30;;;21.60;92.80;;;;;;5000538;28;20517;-62
2021/09/07 00:51:58;;;;;;;10.90;7.90;;;21.60;92.90;;;;;;5006135;28;20444;-62
2021/09/07 00:54:27;;;;;;;11.70;9.47;;;21.70;92.90;;;;;;4998859;28;20537;-62
2021/09/07 00:56:54;;;;;;;10.00;8.90;;;21.70;92.90;;;;;;5001005;28;20521;-62
2021/09/07 00:59:21;;;;;;;12.43;9.53;;;21.50;93.00;;;;;;4998609;28;20453;-62
2021/09/07 01:01:48;;;;;;;10.50;8.43;;;21.40;93.10;;;;;;4997548;28;20448;-62
2021/09/07 01:04:13;;;;;;;10.10;8.70;;;21.30;93.40;;;;;;5003807;28;20467;-62
2021/09/07 01:06:39;;;;;;;10.40;8.60;;;21.30;93.60;;;;;;4996720;28;20490;-62
2021/09/07 01:09:06;;;;;;;13.07;8.73;;;21.30;93.60;;;;;;5001289;28;20247;-62
2021/09/07 01:11:33;;;;;;;9.30;8.30;;;21.20;93.90;;;;;;5000601;28;20437;-62
2021/09/07 01:13:58;;;;;;;9.40;8.50;;;21.20;93.60;;;;;;5000685;28;20474;-62
2021/09/07 01:16:24;;;;;;;9.93;7.93;;;21.00;93.90;;;;;;5005902;28;20471;-62
2021/09/07 01:18:50;;;;;;;8.97;8.00;;;21.00;94.10;;;;;;5004188;28;20189;-62
2021/09/07 01:21:16;;;;;;;10.37;8.30;;;21.00;94.00;;;;;;5003716;28;20196;-62
2021/09/07 01:23:45;;;;;;;10.00;8.53;;;21.10;94.00;;;;;;5004096;28;20487;-62
2021/09/07 01:26:12;;;;;;;9.10;8.20;;;21.00;94.00;;;;;;5000316;28;20471;-62
2021/09/07 01:28:38;;;;;;;10.87;8.37;;;21.00;93.90;;;;;;5003207;28;21008;-62
2021/09/07 01:31:06;;;;;;;8.63;7.80;;;20.90;94.50;;;;;;5004107;28;20456;-62
2021/09/07 01:33:31;;;;;;;9.73;7.70;;;20.80;94.40;;;;;;5005902;28;20190;-62
2021/09/07 01:35:58;;;;;;;9.33;8.30;;;20.70;95.00;;;;;;5001930;28;21050;-62
2021/09/07 01:38:25;;;;;;;11.70;8.97;;;20.70;94.40;;;;;;5002867;28;20223;-61
2021/09/07 01:40:52;;;;;;;11.00;8.80;;;20.80;94.40;;;;;;5004872;28;20448;-62
2021/09/07 01:43:17;;;;;;;11.93;8.80;;;20.90;94.50;;;;;;5000306;28;20582;-62
2021/09/07 01:45:47;;;;;;;10.00;8.33;;;21.00;94.20;;;;;;5003237;28;20530;-62
2021/09/07 01:48:20;;;;;;;9.83;8.77;;;21.00;94.40;;;;;;5003022;28;20192;-62
2021/09/07 01:50:47;;;;;;;10.83;9.00;;;21.10;94.10;;;;;;5001828;28;20735;-62
2021/09/07 01:53:13;;;;;;;10.13;9.13;;;21.10;94.30;;;;;;5005705;28;20442;-62
2021/09/07 01:55:38;;;;;;;10.17;9.00;;;21.10;94.40;;;;;;5002726;28;20499;-62
2021/09/07 01:58:04;;;;;;;9.67;8.37;;;21.10;95.00;;;;;;4999680;28;20221;-62
2021/09/07 02:00:30;;;;;;;9.33;8.43;;;21.10;95.40;;;;;;5002059;28;20970;-62
2021/09/07 02:02:56;;;;;;;9.53;8.53;;;21.00;95.70;;;;;;5002244;28;20205;-62
2021/09/07 02:05:23;;;;;;;11.30;9.40;;;20.90;96.30;;;;;;5002716;28;20945;-62
2021/09/07 02:07:48;;;;;;;10.37;9.23;;;20.60;96.70;;;;;;5005971;28;20185;-62
2021/09/07 02:10:14;;;;;;;10.77;9.67;;;20.70;97.10;;;;;;5001238;28;21000;-62
2021/09/07 02:12:40;;;;;;;11.40;8.90;;;20.60;97.20;;;;;;5005520;28;20197;-62
2021/09/07 02:15:07;;;;;;;10.37;9.37;;;20.50;97.50;;;;;;5004797;28;20209;-62
2021/09/07 02:17:33;;;;;;;10.30;9.30;;;20.20;98.10;;;;;;5002312;28;20245;-62
2021/09/07 02:19:59;;;;;;;11.10;9.77;;;20.20;98.20;;;;;;5007253;28;20444;-62
2021/09/07 02:22:25;;;;;;;11.80;10.23;;;20.20;98.40;;;;;;4999548;28;20945;-62
2021/09/07 02:24:52;;;;;;;14.40;9.90;;;20.30;98.40;;;;;;5003355;28;20870;-62
2021/09/07 02:27:18;;;;;;;9.90;8.90;;;20.30;98.50;;;;;;5000178;28;20452;-61
2021/09/07 02:29:43;;;;;;;10.77;8.90;;;20.40;98.60;;;;;;5003629;28;20478;-62
2021/09/07 02:32:09;;;;;;;11.03;9.53;;;20.20;98.80;;;;;;5003531;28;20941;-61
2021/09/07 02:34:35;;;;;;;13.20;10.17;;;20.10;99.20;;;;;;5006329;28;20660;-61
2021/09/07 02:37:01;;;;;;;10.23;9.10;;;20.20;99.30;;;;;;5002722;28;20518;-62
2021/09/07 02:39:26;;;;;;;10.87;9.50;;;20.20;99.20;;;;;;5001790;28;20255;-62
2021/09/07 02:41:53;;;;;;;11.33;10.03;;;20.20;99.20;;;;;;5004397;28;20276;-62
2021/09/07 02:44:18;;;;;;;11.90;10.10;;;20.20;99.20;;;;;;5001202;28;20209;-62
2021/09/07 02:46:45;;;;;;;11.17;9.90;;;20.20;99.40;;;;;;5002475;28;20824;-62
2021/09/07 02:49:11;;;;;;;11.73;9.93;;;20.20;99.40;;;;;;5001569;28;20196;-62
2021/09/07 02:51:37;;;;;;;11.17;9.73;;;20.20;99.60;;;;;;5004752;28;20702;-62
2021/09/07 02:54:03;;;;;;;10.90;9.70;;;20.00;99.90;;;;;;5002154;28;20472;-61
2021/09/07 02:56:28;;;;;;;10.53;9.43;;;20.00;99.90;;;;;;5002449;28;20525;-62
2021/09/07 02:58:54;;;;;;;11.20;9.73;;;20.00;99.90;;;;;;5004310;28;20271;-62
2021/09/07 03:01:20;;;;;;;10.63;9.33;;;20.00;99.90;;;;;;5001906;28;20445;-62
2021/09/07 03:03:46;;;;;;;11.47;10.10;;;19.90;99.90;;;;;;5003156;28;20193;-61
2021/09/07 03:06:11;;;;;;;10.63;9.50;;;19.90;99.90;;;;;;5005064;28;20308;-61
2021/09/07 03:08:37;;;;;;;11.30;10.10;;;19.80;99.90;;;;;;4999399;28;20197;-62
2021/09/07 03:11:02;;;;;;;11.03;9.90;;;19.80;99.90;;;;;;5005027;28;20450;-62
2021/09/07 03:13:28;;;;;;;11.90;10.43;;;19.80;99.90;;;;;;5003026;28;20652;-61
2021/09/07 03:15:54;;;;;;;11.77;9.93;;;19.60;99.90;;;;;;5001911;28;20255;-61
2021/09/07 03:18:19;;;;;;;11.10;10.00;;;19.50;99.90;;;;;;5003626;28;20235;-62
2021/09/07 03:20:45;;;;;;;11.10;10.00;;;19.60;99.90;;;;;;5000404;28;20667;-61
2021/09/07 03:23:11;;;;;;;17.63;11.70;;;19.60;99.90;;;;;;5003547;28;20461;-62
2021/09/07 03:25:37;;;;;;;12.10;10.30;;;19.40;99.90;;;;;;5003878;28;20486;-61
2021/09/07 03:28:03;;;;;;;10.67;9.53;;;19.50;99.90;;;;;;4999461;28;20190;-61
2021/09/07 03:30:28;;;;;;;10.53;9.40;;;19.50;99.90;;;;;;5003010;28;20185;-61
2021/09/07 03:32:54;;;;;;;10.20;9.20;;;19.40;99.90;;;;;;5002688;28;20830;-62
2021/09/07 03:35:19;;;;;;;12.47;10.60;;;19.30;99.90;;;;;;5002348;28;20201;-62
2021/09/07 03:37:45;;;;;;;11.13;10.03;;;19.30;99.90;;;;;;5003804;28;20465;-62
2021/09/07 03:40:12;;;;;;;11.43;9.30;;;19.30;99.90;;;;;;5000485;28;20197;-62
2021/09/07 03:42:39;;;;;;;11.07;9.93;;;19.40;99.90;;;;;;5002298;28;20189;-61
2021/09/07 03:45:07;;;;;;;9.87;8.87;;;19.40;99.90;;;;;;5003288;28;20467;-62
2021/09/07 03:47:32;;;;;;;14.50;9.87;;;19.40;99.90;;;;;;4999569;28;20452;-62
2021/09/07 03:49:58;;;;;;;14.63;9.50;;;19.30;99.90;;;;;;5000317;28;20444;-62
2021/09/07 03:52:24;;;;;;;10.60;9.50;;;19.40;99.90;;;;;;5002495;28;20215;-62
2021/09/07 03:54:50;;;;;;;9.60;8.60;;;19.40;99.90;;;;;;5001488;28;20671;-62
2021/09/07 03:57:15;;;;;;;12.97;10.03;;;19.40;99.90;;;;;;5001404;28;20356;-62
2021/09/07 03:59:41;;;;;;;12.40;9.57;;;19.40;99.90;;;;;;5002902;28;20554;-62
2021/09/07 04:02:06;;;;;;;11.67;9.33;;;19.40;99.90;;;;;;5004810;28;20228;-62
2021/09/07 04:04:32;;;;;;;10.83;9.73;;;19.40;99.90;;;;;;5001356;28;20300;-62
2021/09/07 04:06:59;;;;;;;11.83;9.80;;;19.40;99.90;;;;;;4997767;28;20643;-62
2021/09/07 04:09:24;;;;;;;11.00;9.90;;;19.10;99.90;;;;;;5001268;28;20189;-62
2021/09/07 04:11:51;;;;;;;9.43;8.40;;;19.30;99.90;;;;;;5001478;28;20828;-62
2021/09/07 04:14:17;;;;;;;11.10;9.43;;;19.40;99.90;;;;;;5002447;28;20193;-62
2021/09/07 04:16:43;;;;;;;9.90;8.90;;;19.20;99.90;;;;;;4999872;28;20473;-62
2021/09/07 04:19:10;;;;;;;10.60;8.80;;;19.10;99.90;;;;;;5000221;28;20456;-62
2021/09/07 04:21:35;;;;;;;14.27;9.97;;;19.10;99.90;;;;;;4998865;28;20445;-62
2021/09/07 04:24:03;;;;;;;11.20;10.00;;;19.10;99.90;;;;;;4998623;28;20821;-62
2021/09/07 04:26:29;;;;;;;13.47;11.17;;;19.10;99.90;;;;;;5001993;28;20263;-62
2021/09/07 04:28:55;;;;;;;12.60;10.37;;;19.00;99.90;;;;;;5002960;28;20432;-62
2021/09/07 04:31:20;;;;;;;12.87;10.00;;;19.00;99.90;;;;;;5000190;28;20308;-62
2021/09/07 04:33:46;;;;;;;12.40;9.83;;;19.00;99.90;;;;;;5003185;28;20194;-62
2021/09/07 04:36:12;;;;;;;12.60;10.60;;;19.10;99.90;;;;;;4998736;28;20220;-62
2021/09/07 04:38:37;;;;;;;14.07;11.00;;;19.10;99.90;;;;;;5002747;28;20190;-62
2021/09/07 04:41:03;;;;;;;10.97;9.77;;;19.10;99.90;;;;;;5006793;28;20185;-62
2021/09/07 04:43:29;;;;;;;11.07;9.83;;;19.10;99.90;;;;;;5000917;28;20726;-62
2021/09/07 04:45:55;;;;;;;11.57;10.43;;;18.90;99.90;;;;;;4997951;28;20587;-62
2021/09/07 04:48:20;;;;;;;12.53;11.07;;;18.90;99.90;;;;;;5002653;28;20193;-62
2021/09/07 04:50:46;;;;;;;11.13;9.90;;;19.00;99.90;;;;;;5003135;28;20535;-62
2021/09/07 04:53:12;;;;;;;12.20;9.80;;;19.00;99.90;;;;;;5007072;28;20194;-62
2021/09/07 04:55:37;;;;;;;10.70;9.60;;;19.10;99.90;;;;;;5003126;28;20241;-62
2021/09/07 04:58:03;;;;;;;11.80;9.60;;;19.10;99.90;;;;;;5005704;28;20276;-62
2021/09/07 05:00:29;;;;;;;12.10;10.20;;;19.00;99.90;;;;;;5005849;28;20208;-61
2021/09/07 05:02:55;;;;;;;10.83;9.70;;;19.00;99.90;;;;;;5001286;28;20457;-62
2021/09/07 05:05:20;;;;;;;15.87;10.73;;;19.10;99.90;;;;;;5005071;28;20259;-62
2021/09/07 05:07:46;;;;;;;12.30;10.97;;;19.20;99.90;;;;;;5002587;28;20201;-62
2021/09/07 05:10:11;;;;;;;14.07;10.93;;;19.20;99.90;;;;;;5006724;28;20194;-61
2021/09/07 05:12:37;;;;;;;11.50;9.67;;;19.30;99.90;;;;;;5003089;28;20263;-62
2021/09/07 05:15:04;;;;;;;10.67;9.57;;;19.30;99.90;;;;;;5001021;28;20205;-62
2021/09/07 05:17:30;;;;;;;13.50;11.50;;;19.20;99.90;;;;;;4999676;28;20208;-62
2021/09/07 05:19:56;;;;;;;20.40;9.63;;;19.20;99.90;;;;;;5001078;28;20455;-62
2021/09/07 05:22:21;;;;;;;12.63;10.77;;;19.30;99.90;;;;;;5005362;28;20200;-61
2021/09/07 05:24:47;;;;;;;16.00;10.43;;;19.30;99.90;;;;;;5004454;28;20304;-62
2021/09/07 05:27:13;;;;;;;11.70;9.93;;;19.20;99.90;;;;;;5002428;28;20228;-61
2021/09/07 05:29:38;;;;;;;11.73;10.30;;;19.30;99.90;;;;;;5006241;28;20787;-61
2021/09/07 05:32:04;;;;;;;11.57;10.37;;;19.20;99.90;;;;;;5002123;28;20212;-62
2021/09/07 05:34:30;;;;;;;12.73;10.03;;;19.20;99.90;;;;;;5002492;28;20204;-62
2021/09/07 05:36:56;;;;;;;12.10;10.60;;;19.30;99.90;;;;;;5005597;28;20229;-62
2021/09/07 05:39:24;;;;;;;13.97;10.77;;;19.30;99.90;;;;;;5005259;28;20849;-62
2021/09/07 05:41:53;;;;;;;15.17;10.77;;;19.40;99.90;;;;;;4999219;28;20436;-61
2021/09/07 05:44:20;;;;;;;16.07;10.40;;;19.50;99.90;;;;;;5006291;28;20476;-62
2021/09/07 05:46:46;;;;;;;10.30;9.03;;;19.60;99.90;;;;;;5004051;28;20460;-61
2021/09/07 05:49:11;;;;;;;11.13;10.00;;;19.60;99.90;;;;;;5005463;28;21088;-61
2021/09/07 05:51:37;;;;;;;14.43;10.10;;;19.70;99.90;;;;;;5004400;28;20248;-60
2021/09/07 05:54:02;;;;;;;13.00;10.30;;;19.70;99.90;;;;;;5002801;28;20252;-62
2021/09/07 05:56:28;;;;;;;13.80;10.00;;;19.80;99.90;;;;;;5003471;28;20209;-62
2021/09/07 05:58:56;;;;;;;16.80;10.73;;;19.80;99.90;;;;;;5002053;28;20279;-63
2021/09/07 06:01:22;;;;;;;17.93;10.57;;;19.90;99.90;;;;;;5001541;28;20440;-63
2021/09/07 06:03:47;;;;;;;13.80;10.50;;;20.00;99.90;;;;;;5001078;28;20446;-62
2021/09/07 06:06:13;;;;;;;11.43;10.30;;;20.00;99.90;;;;;;4998490;28;20284;-62
2021/09/07 06:08:40;;;;;;;11.10;9.63;;;19.90;99.90;;;;;;5001737;28;20259;-62
2021/09/07 06:11:06;;;;;;;13.53;9.50;;;19.90;99.90;;;;;;5003376;28;20182;-62
2021/09/07 06:13:32;;;;;;;13.97;10.40;;;20.00;99.90;;;;;;5004003;28;20440;-62
2021/09/07 06:15:58;;;;;;;12.87;8.80;;;20.10;99.90;;;;;;5003320;28;20984;-62
2021/09/07 06:18:24;;;;;;;13.50;10.00;;;20.10;99.90;;;;;;5003106;28;20463;-62
2021/09/07 06:20:49;;;;;;;11.03;9.93;;;20.20;99.90;;;;;;5004608;28;20272;-62
2021/09/07 06:23:16;;;;;;;13.80;9.53;;;20.30;99.90;;;;;;5000488;28;20197;-62
2021/09/07 06:25:42;;;;;;;10.80;9.70;;;20.20;99.90;;;;;;4995621;28;20223;-62
2021/09/07 06:28:08;;;;;;;15.90;10.00;;;20.20;99.90;;;;;;5001775;28;20444;-62
2021/09/07 06:30:33;;;;;;;12.03;9.53;;;20.10;99.90;;;;;;5001542;28;20444;-62
2021/09/07 06:32:59;;;;;;;14.63;10.50;;;20.00;99.90;;;;;;5000520;28;20206;-62
2021/09/07 06:35:25;;;;;;;12.40;10.00;;;20.00;99.90;;;;;;5002484;28;20251;-62
2021/09/07 06:37:54;;;;;;;10.70;9.60;;;20.20;99.90;;;;;;5002970;28;20201;-62
2021/09/07 06:40:21;;;;;;;13.27;10.00;;;20.00;99.90;;;;;;5000343;28;20469;-62
2021/09/07 06:42:48;;;;;;;14.13;10.50;;;20.00;99.90;;;;;;5000735;28;20454;-62
2021/09/07 06:45:14;;;;;;;12.23;9.57;;;19.80;99.90;;;;;;5001046;28;20483;-62
2021/09/07 06:47:39;;;;;;;13.80;10.20;;;20.00;99.90;;;;;;4997980;28;20530;-62
2021/09/07 06:50:06;;;;;;;13.83;9.83;;;19.80;99.90;;;;;;5001202;28;20561;-62
2021/09/07 06:52:32;;;;;;;11.77;10.10;;;20.00;99.90;;;;;;5015478;28;20193;-62
2021/09/07 06:54:58;;;;;;;14.00;10.47;;;19.90;99.90;;;;;;5004207;28;20981;-62
2021/09/07 06:57:26;;;;;;;11.10;9.10;;;19.90;99.90;;;;;;4999126;28;20481;-62
2021/09/07 06:59:53;;;;;;;10.70;9.60;;;19.80;99.90;;;;;;5001766;28;20464;-62
2021/09/07 07:02:19;;;;;;;10.07;9.07;;;20.00;99.90;;;;;;5001105;28;20554;-61
2021/09/07 07:04:44;;;;;;;10.70;9.60;;;20.00;99.90;;;;;;4999897;28;20498;-62
2021/09/07 07:07:10;;;;;;;12.53;9.00;;;20.10;99.90;;;;;;5002061;28;21144;-61
2021/09/07 07:09:35;;;;;;;9.83;8.80;;;20.00;99.90;;;;;;5004282;28;20211;-62
2021/09/07 07:12:02;;;;;;;10.63;9.33;;;20.20;99.90;;;;;;4984478;28;20207;-62
2021/09/07 07:14:27;;;;;;;12.70;8.90;;;20.20;99.90;;;;;;4998303;28;20204;-61
2021/09/07 07:16:53;;;;;;;11.17;9.37;;;20.00;99.90;;;;;;5000172;28;20863;-62
2021/09/07 07:19:19;;;;;;;10.40;8.83;;;20.00;99.90;;;;;;5003426;28;20212;-62
2021/09/07 07:21:44;;;;;;;10.17;8.57;;;20.00;99.90;;;;;;4999213;28;20746;-62
2021/09/07 07:24:10;;;;;;;11.57;10.13;;;20.00;99.90;;;;;;4998932;28;20307;-62
2021/09/07 07:26:36;;;;;;;11.43;10.23;;;20.20;99.90;;;;;;5002962;28;20209;-62
2021/09/07 07:29:01;;;;;;;9.57;8.57;;;20.30;99.90;;;;;;5000875;28;20197;-62
2021/09/07 07:31:28;;;;;;;11.20;10.10;;;20.50;99.90;;;;;;4998886;28;20616;-61
2021/09/07 07:33:54;;;;;;;11.73;9.70;;;20.50;99.90;;;;;;5002645;28;20320;-62
2021/09/07 07:36:19;;;;;;;12.87;8.80;;;20.50;99.90;;;;;;4997564;28;20547;-61
2021/09/07 07:38:45;;;;;;;13.97;9.83;;;20.30;99.90;;;;;;4999695;28;20200;-61
2021/09/07 07:41:11;;;;;;;13.60;9.10;;;20.50;99.90;;;;;;5001672;28;20786;-61
2021/09/07 07:43:44;;;;;;;16.80;10.13;;;20.70;99.90;;;;;;5004623;28;20532;-61
2021/09/07 07:46:13;;;;;;;9.87;8.83;;;20.80;99.90;;;;;;4993686;28;20224;-61
2021/09/07 07:48:41;;;;;;;15.63;10.60;;;20.90;99.90;;;;;;4999703;28;20444;-61
2021/09/07 07:51:11;;;;;;;11.90;9.20;;;20.90;99.90;;;;;;4996507;28;20510;-61
2021/09/07 07:53:37;;;;;;;11.13;10.03;;;21.00;99.90;;;;;;4999943;28;20860;-61
2021/09/07 07:56:04;;;;;;;11.70;10.60;;;21.00;99.90;;;;;;4998444;28;20452;-61
2021/09/07 07:58:30;;;;;;;11.57;10.37;;;21.00;99.90;;;;;;4996410;28;20893;-60
2021/09/07 08:00:56;;;;;;;15.63;10.53;;;21.10;99.90;;;;;;4995576;28;20452;-61
2021/09/07 08:03:22;;;;;;;13.70;9.60;;;21.10;99.90;;;;;;4996792;28;20182;-61
2021/09/07 08:05:48;;;;;;;11.00;9.80;;;21.30;99.90;;;;;;4999412;28;20529;-62
2021/09/07 08:08:14;;;;;;;11.83;10.37;;;21.30;99.90;;;;;;4998120;28;20841;-62
2021/09/07 08:10:39;;;;;;;16.63;10.80;;;21.40;99.90;;;;;;5002582;28;20193;-62
2021/09/07 08:13:08;;;;;;;11.70;9.90;;;21.40;99.90;;;;;;4997197;28;20577;-62
2021/09/07 08:15:34;;;;;;;11.57;9.40;;;21.20;99.90;;;;;;5000311;28;20247;-62
2021/09/07 08:18:01;;;;;;;10.90;9.20;;;21.40;99.90;;;;;;4999073;28;20449;-61
2021/09/07 08:20:30;;;;;;;11.20;8.97;;;21.60;99.90;;;;;;4997062;28;20209;-62
2021/09/07 08:22:56;;;;;;;12.60;8.87;;;21.80;99.90;;;;;;5000892;28;20448;-61
2021/09/07 08:25:22;;;;;;;10.97;9.47;;;21.80;99.90;;;;;;5000923;28;20471;-61
2021/09/07 08:27:47;;;;;;;10.07;8.57;;;21.90;99.90;;;;;;5001999;28;20652;-61
2021/09/07 08:30:14;;;;;;;9.50;8.33;;;21.90;99.90;;;;;;5004408;28;20692;-61
2021/09/07 08:32:42;;;;;;;14.10;8.73;;;22.10;99.90;;;;;;5003249;28;20195;-61
2021/09/07 08:35:09;;;;;;;11.00;9.30;;;22.20;99.90;;;;;;5005434;28;20475;-61
2021/09/07 08:37:35;;;;;;;10.73;8.90;;;22.20;99.90;;;;;;5004965;28;21027;-61
2021/09/07 08:40:00;;;;;;;9.60;8.47;;;22.30;99.90;;;;;;5002392;28;20921;-62
2021/09/07 08:42:27;;;;;;;10.47;8.43;;;22.40;99.90;;;;;;5005551;28;20592;-63
2021/09/07 08:44:53;;;;;;;9.80;8.33;;;22.40;99.90;;;;;;5002646;28;20217;-63
2021/09/07 08:47:19;;;;;;;11.30;9.43;;;22.50;99.90;;;;;;5004060;28;20811;-62
2021/09/07 08:49:48;;;;;;;9.73;8.73;;;22.60;99.90;;;;;;5001328;28;20197;-62
2021/09/07 08:52:15;;;;;;;10.50;9.47;;;22.70;99.90;;;;;;5006189;28;20450;-62
2021/09/07 08:54:41;;;;;;;16.07;9.37;;;22.70;99.90;;;;;;5002777;28;20432;-62
2021/09/07 08:57:07;;;;;;;12.10;8.97;;;22.80;99.90;;;;;;5006544;28;20573;-62
2021/09/07 08:59:34;;;;;;;11.70;9.30;;;22.90;99.90;;;;;;5005290;28;20543;-62
2021/09/07 09:02:20;;;;;;;19.30;9.70;;;22.80;99.90;;;;;;4999947;28;20535;-62
2021/09/07 09:04:50;;;;;;;11.17;9.97;;;22.80;99.90;;;;;;4998842;28;20918;-62
2021/09/07 09:07:23;;;;;;;11.97;9.47;;;22.90;99.90;;;;;;4999656;28;20484;-60
2021/09/07 09:09:50;;;;;;;13.50;9.37;;;23.00;99.90;;;;;;4992818;28;20487;-61
2021/09/07 09:12:26;;;;;;;9.60;8.60;;;23.00;99.90;;;;;;5004237;28;20439;-61
2021/09/07 09:14:52;;;;;;;9.80;8.80;;;23.20;99.90;;;;;;5001560;28;20480;-61
2021/09/07 09:17:17;;;;;;;13.77;9.37;;;23.20;99.90;;;;;;5002616;28;20473;-61
2021/09/07 09:19:57;;;;;;;11.80;9.73;;;23.10;99.90;;;;;;5002440;28;20412;-61
2021/09/07 09:22:59;;;;;;;14.30;8.40;;;23.10;99.90;;;;;;5002066;28;20221;-62
2021/09/07 09:25:25;;;;;;;10.77;8.73;;;23.10;99.90;;;;;;5001563;28;20545;-61
2021/09/07 09:27:54;;;;;;;9.93;8.90;;;23.20;99.90;;;;;;5004863;28;20494;-62
2021/09/07 09:30:28;;;;;;;12.97;8.60;;;23.30;99.90;;;;;;5001533;28;20555;-62
2021/09/07 09:32:54;;;;;;;9.87;8.83;;;23.20;99.90;;;;;;5001850;28;20812;-61
2021/09/07 09:35:20;;;;;;;11.10;9.03;;;23.30;99.90;;;;;;4999798;28;20467;-60
2021/09/07 09:38:00;;;;;;;9.27;8.27;;;23.60;99.90;;;;;;5002216;28;20443;-62
2021/09/07 09:40:27;;;;;;;11.33;8.87;;;23.50;99.90;;;;;;5004459;28;20416;-62
2021/09/07 09:42:53;;;;;;;10.63;8.67;;;23.50;99.90;;;;;;5004284;28;20929;-61
2021/09/07 09:45:28;;;;;;;10.17;9.17;;;23.60;99.90;;;;;;5000007;28;20477;-60
2021/09/07 09:47:56;;;;;;;11.87;8.40;;;23.70;99.90;;;;;;4999582;28;20519;-61
2021/09/07 09:50:25;;;;;;;11.30;10.10;;;23.70;99.90;;;;;;4999521;28;20437;-61
2021/09/07 09:52:51;;;;;;;10.40;9.10;;;23.70;99.90;;;;;;5007000;28;20447;-61
2021/09/07 09:55:18;;;;;;;13.07;9.30;;;23.80;99.90;;;;;;5005602;28;20425;-61
2021/09/07 09:57:44;;;;;;;10.40;9.00;;;23.80;99.90;;;;;;5000890;28;20428;-61
2021/09/07 10:00:15;;;;;;;10.07;8.30;;;23.90;99.90;;;;;;4999353;28;20448;-61
2021/09/07 10:02:43;;;;;;;10.40;9.30;;;24.00;99.90;;;;;;5005688;28;20489;-62
2021/09/07 10:05:11;;;;;;;11.13;10.00;;;24.00;99.90;;;;;;4998532;28;20475;-62
2021/09/07 10:07:37;;;;;;;11.10;9.60;;;24.20;99.90;;;;;;5015431;28;20467;-62
2021/09/07 10:10:03;;;;;;;11.40;9.63;;;24.20;99.90;;;;;;5000582;28;20436;-61
2021/09/07 10:12:33;;;;;;;12.57;9.40;;;24.20;99.90;;;;;;5001577;28;20198;-61
2021/09/07 10:15:09;;;;;;;11.37;8.70;;;24.40;99.90;;;;;;5003308;28;20473;-62
2021/09/07 10:20:10;;;;;;;11.60;8.00;;;24.40;99.90;;;;;;4998594;28;20464;-62
2021/09/07 10:25:53;;;;;;;10.20;9.10;;;24.60;99.90;;;;;;5000664;28;20481;-62
2021/09/07 10:28:33;;;;;;;12.77;7.70;;;24.70;99.90;;;;;;5006214;28;20582;-61
2021/09/07 10:31:04;;;;;;;9.80;8.80;;;24.70;99.90;;;;;;5004034;28;20449;-61
2021/09/07 10:33:31;;;;;;;9.53;8.63;;;24.90;99.40;;;;;;5000221;28;20447;-61
2021/09/07 10:36:36;;;;;;;8.63;7.73;;;25.00;98.60;;;;;;4998808;28;20574;-62
2021/09/07 10:39:04;;;;;;;9.47;8.57;;;25.00;99.40;;;;;;4941005;28;20461;-62
2021/09/07 10:41:32;;;;;;;11.87;9.43;;;25.20;99.10;;;;;;4995050;28;20451;-61
2021/09/07 10:44:03;;;;;;;9.63;8.63;;;25.20;98.40;;;;;;4998822;28;20440;-61
2021/09/07 10:46:58;;;;;;;10.87;8.17;;;25.30;98.50;;;;;;5003394;28;20468;-61
2021/09/07 10:49:44;;;;;;;8.90;7.50;;;25.30;97.70;;;;;;5001741;28;20482;-62
2021/09/07 10:52:12;;;;;;;10.63;8.90;;;25.30;98.10;;;;;;5002571;28;20528;-61
2021/09/07 10:55:09;;;;;;;10.40;9.23;;;25.40;97.70;;;;;;5005771;28;20443;-61
2021/09/07 10:57:34;;;;;;;9.93;8.30;;;25.50;96.60;;;;;;5003462;28;20478;-62
2021/09/07 11:00:19;;;;;;;9.20;8.30;;;25.70;97.00;;;;;;5003349;28;20444;-61
2021/09/07 11:03:04;;;;;;;11.37;8.53;;;25.80;97.60;;;;;;5002313;28;20220;-61
2021/09/07 11:05:32;;;;;;;14.60;9.77;;;25.90;96.90;;;;;;5000062;28;20496;-61
2021/09/07 11:08:17;;;;;;;13.93;9.30;;;26.00;96.90;;;;;;4999118;28;20432;-62
2021/09/07 11:10:52;;;;;;;9.37;7.73;;;26.10;96.70;;;;;;5000379;28;20476;-61
2021/09/07 11:13:21;;;;;;;9.70;8.70;;;26.20;95.60;;;;;;5001283;28;20446;-61
2021/09/07 11:15:48;;;;;;;10.37;8.70;;;26.10;95.90;;;;;;5002708;28;20510;-62
2021/09/07 11:18:20;;;;;;;9.30;8.10;;;26.20;95.70;;;;;;5001687;28;20500;-62
2021/09/07 11:20:48;;;;;;;9.93;8.93;;;26.40;95.80;;;;;;4999994;28;20443;-62
2021/09/07 11:23:28;;;;;;;8.47;7.13;;;26.50;95.50;;;;;;5004344;28;20481;-61
2021/09/07 11:26:11;;;;;;;11.40;9.07;;;26.70;95.70;;;;;;5002492;28;20472;-61
2021/09/07 11:28:40;;;;;;;13.83;8.87;;;27.00;96.00;;;;;;5001284;28;20440;-61
2021/09/07 11:31:07;;;;;;;9.53;8.63;;;27.10;95.60;;;;;;4997412;28;20445;-61
2021/09/07 11:33:35;;;;;;;9.47;8.47;;;27.10;95.10;;;;;;5000124;28;20966;-61
2021/09/07 11:36:02;;;;;;;8.77;7.90;;;27.20;94.40;;;;;;5000838;28;20452;-61
2021/09/07 11:38:40;;;;;;;9.40;8.47;;;27.40;94.40;;;;;;5001573;28;20609;-61
2021/09/07 11:41:11;;;;;;;10.80;9.10;;;27.60;93.60;;;;;;4999668;28;20444;-61
2021/09/07 11:43:39;;;;;;;9.17;8.20;;;27.80;93.60;;;;;;4998225;28;20440;-61
2021/09/07 11:46:17;;;;;;;9.30;8.40;;;28.00;92.90;;;;;;5004884;28;20472;-61
2021/09/07 11:48:48;;;;;;;8.80;8.00;;;28.00;92.70;;;;;;5000616;28;20931;-62
2021/09/07 11:51:17;;;;;;;9.17;8.27;;;28.20;91.80;;;;;;4997971;28;20970;-62
2021/09/07 11:53:44;;;;;;;10.90;8.07;;;28.40;93.10;;;;;;5003546;28;20471;-62
2021/09/07 11:56:21;;;;;;;8.60;7.73;;;28.60;90.20;;;;;;4998256;28;20464;-61
2021/09/07 11:58:46;;;;;;;12.53;8.77;;;28.80;90.50;;;;;;4999186;28;20462;-62
2021/09/07 12:01:17;;;;;;;9.00;8.10;;;29.20;88.70;;;;;;4999035;28;20448;-62
2021/09/07 12:04:17;;;;;;;9.23;8.20;;;29.90;87.20;;;;;;4999869;28;20197;-62
2021/09/07 12:06:46;;;;;;;9.23;8.43;;;30.70;86.50;;;;;;4980114;28;20895;-62
2021/09/07 12:09:30;;;;;;;10.37;8.80;;;31.10;84.50;;;;;;4999951;28;20866;-62
2021/09/07 12:12:05;;;;;;;10.20;8.57;;;31.80;82.10;;;;;;4998840;28;20466;-62
2021/09/07 12:14:44;;;;;;;17.20;9.10;;;32.30;80.90;;;;;;5001525;28;20788;-62
2021/09/07 12:17:15;;;;;;;9.30;8.30;;;32.10;79.30;;;;;;4999839;28;20441;-62
2021/09/07 12:19:48;;;;;;;9.37;8.33;;;32.60;77.90;;;;;;4995937;28;20407;-62
2021/09/07 12:22:24;;;;;;;11.77;8.50;;;33.20;74.70;;;;;;5003484;28;20483;-64
2021/09/07 12:25:11;;;;;;;14.43;8.53;;;33.10;74.70;;;;;;5018069;28;20520;-64
2021/09/07 12:27:43;;;;;;;9.43;8.53;;;33.40;73.40;;;;;;5001564;28;20506;-64
2021/09/07 12:30:24;;;;;;;9.80;8.00;;;33.60;70.80;;;;;;5001875;28;20475;-67
2021/09/07 12:32:55;;;;;;;7.60;7.00;;;33.60;70.40;;;;;;4999490;28;20414;-67
2021/09/07 12:35:40;;;;;;;9.73;8.13;;;33.90;66.50;;;;;;5000627;28;20486;-67
2021/09/07 12:38:20;;;;;;;11.30;7.63;;;33.90;66.00;;;;;;5001615;28;20426;-68
2021/09/07 12:40:55;;;;;;;11.30;8.30;;;33.80;64.40;;;;;;5002781;28;20449;-68
2021/09/07 12:43:22;;;;;;;9.20;7.30;;;34.10;63.40;;;;;;5001102;28;22164;-67
2021/09/07 12:45:54;;;;;;;8.50;7.60;;;34.30;62.50;;;;;;4997604;28;20488;-68
2021/09/07 12:48:20;;;;;;;8.67;7.63;;;34.50;61.20;;;;;;5001569;28;20549;-67